Flight Track Log - Related Links

Times and Time Zones

All times are in EDT time to prevent confusion due to time zone crossing. See the ASQ5941 flight status page for this flight to view local times or setup timezone preferences in your user account.

Time Position Orientation Groundspeed Altitude Reporting Facility
EDT Latitude Longitude Course Direction KTS MPH feet Rate Location/Type
Wed 06:38:19 PM 41.3039 -75.8167 284° West 233 268 4,700  Level New Center
Wed 06:39:19 PM 41.3694 -75.8411 344° North 248 285 7,100 2,390 Climbing New Center
Wed 06:40:17 PM 41.4350 -75.8653 345° North 253 291 9,400 1,966 Climbing New Center
Wed 06:41:18 PM 41.5008 -75.8869 346° North 248 285 11,000 1,525 Climbing New Center
Wed 06:42:00 PM 41.5345 -76.1100 312° West  Level FlightAware
Wed 06:42:19 PM 41.5725 -75.9144 344° North 258 297 12,500  Level New Center
Wed 06:43:19 PM 41.6172 -75.9875 309° West 258 297 13,700 1,119 Climbing New Center
Wed 06:44:17 PM 41.6461 -76.0842 292° West 264 304 14,700 966 Climbing New Center
Wed 06:45:17 PM 41.6714 -76.1750 290° West 284 327 15,600 1,033 Climbing New Center
Wed 06:46:19 PM 41.7053 -76.2944 291° West 297 342 16,800 1,050 Climbing New Center
Wed 06:47:17 PM 41.7356 -76.4025 291° West 302 348 17,700 1,068 Climbing New Center
Wed 06:48:17 PM 41.7658 -76.5136 290° West 314 361 18,900 1,140 Climbing New Center
Wed 06:49:18 PM 41.7978 -76.6247 291° West 314 361 20,000 1,043 Climbing New Center
Wed 06:51:21 PM 41.8644 -76.8661 290° West 329 379 22,100 1,016 Climbing Cleveland Center
Wed 06:52:21 PM 41.8975 -76.9842 291° West 329 379 23,100 1,000 Climbing Cleveland Center
Wed 06:53:21 PM 41.9281 -77.0969 290° West 335 386 24,100 1,000 Climbing Cleveland Center
Wed 06:54:21 PM 41.9586 -77.2156 289° West 335 386 25,100 1,000 Climbing Cleveland Center
Wed 06:55:21 PM 41.9933 -77.3339 292° West 341 392 26,100 1,000 Climbing Cleveland Center
Wed 06:56:21 PM 42.0236 -77.4525 289° West 341 392 27,100 1,050 Climbing Cleveland Center
Wed 06:57:21 PM 42.0539 -77.5683 289° West 341 392 28,200 1,050 Climbing Cleveland Center
Wed 06:58:21 PM 42.0861 -77.6817 291° West 341 392 29,200 1,000 Climbing Cleveland Center
Wed 06:59:21 PM 42.1161 -77.7978 289° West 341 392 30,200 1,000 Climbing Cleveland Center
Wed 07:00:21 PM 42.1458 -77.9142 289° West 341 392 31,200 1,000 Climbing Cleveland Center
Wed 07:01:21 PM 42.1756 -78.0306 289° West 336 387 32,200 1,050 Climbing Cleveland Center
Wed 07:02:21 PM 42.2072 -78.1472 290° West 336 387 33,300 900 Climbing Cleveland Center
Wed 07:03:21 PM 42.2367 -78.2639 289° West 336 387 34,000 350 Climbing Cleveland Center
Wed 07:04:21 PM 42.2683 -78.3861 289° West 342 394 34,000  Level Cleveland Center
Wed 07:05:21 PM 42.2975 -78.5003 289° West 347 399 34,000  Level Cleveland Center
Wed 07:06:21 PM 42.3311 -78.6311 289° West 360 414 34,000  Level Cleveland Center
Wed 07:07:21 PM 42.3647 -78.7650 289° West 372 428 34,000  Level Cleveland Center
Wed 07:08:21 PM 42.3981 -78.9019 288° West 377 434 34,000  Level Cleveland Center
Wed 07:09:21 PM 42.4311 -79.0303 289° West 382 440 34,000  Level Cleveland Center
Wed 07:10:21 PM 42.4661 -79.1675 289° West 382 440 34,000  Level Cleveland Center
Wed 07:11:21 PM 42.4947 -79.3019 286° West 382 440 34,000  Level Cleveland Center
Wed 07:12:21 PM 42.5025 -79.4425 274° West 377 434 34,000  Level Cleveland Center
Wed 07:13:21 PM 42.5058 -79.5833 272° West 372 428 34,000  Level Cleveland Center
Wed 07:14:21 PM 42.5133 -79.7269 274° West 372 428 34,000  Level Cleveland Center
Wed 07:15:21 PM 42.5183 -79.8678 273° West 372 428 34,000  Level Cleveland Center
Wed 07:16:21 PM 42.5256 -80.0000 274° West 372 428 34,000  Level Cleveland Center
Wed 07:17:21 PM 42.5322 -80.1408 274° West 372 428 34,000  Level Cleveland Center
Wed 07:18:21 PM 42.5369 -80.2872 273° West 372 428 34,000  Level Cleveland Center
Wed 07:19:21 PM 42.5456 -80.4253 275° West 372 428 34,000  Level Cleveland Center
Wed 07:20:21 PM 42.5497 -80.5664 272° West 377 434 34,000  Level Cleveland Center
Wed 07:21:21 PM 42.5539 -80.7044 272° West 377 434 34,000  Level Cleveland Center
Wed 07:22:21 PM 42.5600 -80.8481 273° West 382 440 34,000  Level Cleveland Center
Wed 07:23:21 PM 42.5658 -80.9892 273° West 382 440 34,000  Level Cleveland Center
Wed 07:24:21 PM 42.5694 -81.1414 272° West 382 440 34,000  Level Cleveland Center
Wed 07:25:21 PM 42.5728 -81.2794 272° West 382 440 34,000  Level Cleveland Center
Wed 07:26:21 PM 42.5781 -81.4150 273° West 374 430 34,000  Level Cleveland Center
Wed 07:27:21 PM 42.5978 -81.5450 282° West 362 417 34,000  Level Cleveland Center
Wed 07:28:21 PM 42.6197 -81.6750 283° West 357 411 34,000  Level Cleveland Center
Wed 07:29:21 PM 42.6456 -81.8025 285° West 352 405 34,000  Level Cleveland Center
Wed 07:30:21 PM 42.6669 -81.9300 283° West 352 405 34,000  Level Cleveland Center
Wed 07:31:21 PM 42.6883 -82.0633 282° West 357 411 34,000  Level Cleveland Center
Wed 07:32:21 PM 42.7117 -82.1908 284° West 357 411 34,000  Level Cleveland Center
Wed 07:33:21 PM 42.7328 -82.3186 283° West 357 411 34,000  Level Cleveland Center
Wed 07:34:21 PM 42.7517 -82.4353 282° West 357 411 34,000  Level Cleveland Center
Wed 07:35:21 PM 42.7744 -82.5631 284° West 357 411 34,000  Level Cleveland Center
Wed 07:36:21 PM 42.7972 -82.6969 283° West 357 411 34,000  Level Cleveland Center
Wed 07:37:21 PM 42.8197 -82.8336 283° West 357 411 34,000  Level Cleveland Center
Wed 07:38:21 PM 42.8419 -82.9731 282° West 367 422 34,000 -450 Level Cleveland Center
Wed 07:39:21 PM 42.8658 -83.1128 283° West 375 432 33,100 -900 Descending Cleveland Center
Wed 07:40:21 PM 42.8858 -83.2497 281° West 375 432 32,200 -550 Descending Cleveland Center
Wed 07:41:21 PM 42.9075 -83.3894 282° West 375 432 32,000 -100 Descending Cleveland Center
Wed 07:42:21 PM 42.9311 -83.5239 284° West 375 432 32,000  Level Cleveland Center
Wed 07:43:21 PM 42.9275 -83.6683 268° West 375 432 32,000  Level Cleveland Center
Wed 07:44:21 PM 42.9194 -83.8069 266° West 370 426 32,000  Level Cleveland Center
Wed 07:45:21 PM 42.9111 -83.9511 266° West 370 426 32,000  Level Cleveland Center
Wed 07:46:21 PM 42.9028 -84.0953 266° West 375 432 32,000  Level Cleveland Center
Wed 07:48:04 PM 42.8886 -84.3289 265° West 382 440 32,000  Level Chicago Center
Wed 07:49:06 PM 42.8775 -84.5011 265° West 382 440 32,000  Level Chicago Center
Wed 07:50:08 PM 42.8686 -84.6453 265° West 382 440 32,000  Level Chicago Center
Wed 07:51:10 PM 42.8578 -84.7900 264° West 383 441 32,000  Level Chicago Center
Wed 07:52:12 PM 42.8475 -84.9336 264° West 382 440 32,000  Level Chicago Center
Wed 07:53:14 PM 42.8328 -85.0772 262° West 384 442 32,000 -339 Level Chicago Center
Wed 07:54:16 PM 42.8169 -85.2203 261° West 382 440 31,300 -1,113 Descending Chicago Center
Wed 07:55:18 PM 42.7975 -85.3950 261° West 387 445 29,700 -1,392 Descending Chicago Center
Wed 07:56:21 PM 42.7792 -85.5428 260° West 393 452 28,400 -1,296 Descending Chicago Center
Wed 07:57:23 PM 42.7528 -85.6892 256° West 395 455 27,000 -1,597 Descending Chicago Center
Wed 07:58:25 PM 42.7261 -85.8331 256° West 392 451 25,100 -1,935 Descending Chicago Center
Wed 07:59:27 PM 42.7008 -85.9722 256° West 380 437 23,000 -1,968 Descending Chicago Center
Wed 08:00:30 PM 42.6764 -86.1069 256° West 367 422 21,000 -1,440 Descending Chicago Center
Wed 08:01:32 PM 42.6525 -86.2344 256° West 352 405 20,000 -484 Descending Chicago Center
Wed 08:02:34 PM 42.6222 -86.3958 256° West 364 419 20,000  Level Chicago Center
Wed 08:03:37 PM 42.5956 -86.5339 255° West 375 432 20,000 -864 Level Chicago Center
Wed 08:04:39 PM 42.5719 -86.6650 256° West 362 417 18,200 -2,177 Descending Chicago Center
Wed 08:05:41 PM 42.5425 -86.7961 253° West 364 419 15,500 -1,839 Descending Chicago Center
Wed 08:06:43 PM 42.5097 -86.9119 249° West 336 387 14,400 -1,113 Descending Chicago Center
Wed 08:07:45 PM 42.4839 -87.0067 250° West 276 318 13,200 -1,694 Descending Chicago Center
Wed 08:08:47 PM 42.4542 -87.1119 249° West 253 291 10,900 -1,887 Descending Chicago Center
Wed 08:09:49 PM 42.4311 -87.1997 250° West 249 287 9,300 -919 Descending Chicago Center
Wed 08:10:51 PM 42.4025 -87.2858 246° West 250 288 9,000 -242 Descending Chicago Center
Wed 08:11:53 PM 42.3719 -87.3708 244° Southwest 252 290 8,800 -484 Descending Chicago Center
Wed 08:12:55 PM 42.3417 -87.4567 245° Southwest 248 285 8,000 -774 Descending Chicago Center
Wed 08:13:57 PM 42.3114 -87.5381 243° Southwest 245 282 7,200 -484 Descending Chicago Center
Wed 08:14:59 PM 42.2594 -87.6069 224° Southwest 223 257 7,000 -480 Descending Chicago Center
Wed 08:16:02 PM 42.2125 -87.6561 218° Southwest 218 251 6,200 -960 Descending Chicago Center
Wed 08:17:04 PM 42.1644 -87.7100 220° Southwest 221 254 5,000 -1,210 Descending Chicago Center
Wed 08:18:06 PM 42.1161 -87.7656 220° Southwest 228 262 3,700 -1,299 Descending Chicago Center
Wed 08:18:41 PM 42.0833 -87.8000 218° Southwest 193 222 2,900 -1,074 Descending Chicago TRACON
Wed 08:19:41 PM 42.0500 -87.8333 217° Southwest 171 197 2,000 -810 Descending Chicago TRACON
Wed 08:20:47 PM 42.0167 -87.8667 217° Southwest 131 151 1,200 -727 Descending Chicago TRACON

Login

Don't have an account? Register now (free) for customized features, flight alerts, and more!